createdAt,value
2019-05-13T00:00:26.155Z,8.46
2019-05-13T00:02:56.475Z,8.46
2019-05-13T00:05:27.855Z,8.47
2019-05-13T00:07:58.417Z,8.48
2019-05-13T00:10:29.198Z,8.46
2019-05-13T00:13:00.358Z,8.45
2019-05-13T00:15:30.569Z,8.50
2019-05-13T00:18:00.821Z,8.50
2019-05-13T00:20:33.523Z,8.45
2019-05-13T00:23:04.105Z,8.53
2019-05-13T00:25:35.156Z,8.48
2019-05-13T00:28:06.426Z,8.59
2019-05-13T00:30:36.647Z,8.52
2019-05-13T00:33:07.245Z,8.44
2019-05-13T00:35:37.892Z,8.44
2019-05-13T00:38:08.536Z,8.46
2019-05-13T00:40:39.340Z,8.44
2019-05-13T00:43:09.606Z,8.44
2019-05-13T00:45:40.177Z,8.48
2019-05-13T00:48:10.838Z,8.53
2019-05-13T00:50:44.025Z,8.40
2019-05-13T00:53:14.006Z,8.47
2019-05-13T00:55:45.825Z,8.40
2019-05-13T00:58:16.515Z,8.39
2019-05-13T01:00:47.145Z,8.41
2019-05-13T01:03:17.458Z,8.38
2019-05-13T01:05:47.738Z,8.40
2019-05-13T01:08:17.940Z,8.42
2019-05-13T01:10:48.163Z,8.42
2019-05-13T01:13:18.378Z,8.39
2019-05-13T01:15:48.609Z,8.43
2019-05-13T01:18:19.233Z,8.43
2019-05-13T01:20:49.562Z,8.42
2019-05-13T01:23:19.795Z,8.40
2019-05-13T01:25:50.069Z,8.44
2019-05-13T01:28:20.340Z,8.33
2019-05-13T01:30:50.600Z,8.37
2019-05-13T01:33:20.816Z,8.32
2019-05-13T01:35:53.608Z,8.30
2019-05-13T01:38:24.046Z,8.32
2019-05-13T01:40:55.052Z,8.31
2019-05-13T01:43:25.706Z,8.33
2019-05-13T01:45:55.988Z,8.29
2019-05-13T01:48:26.549Z,8.27
2019-05-13T01:50:56.824Z,8.32
2019-05-13T01:53:27.058Z,8.42
2019-05-13T01:55:57.275Z,8.52
2019-05-13T01:58:27.482Z,8.50
2019-05-13T02:00:57.693Z,8.42
2019-05-13T02:03:27.929Z,8.34
2019-05-13T02:05:58.164Z,8.33
2019-05-13T02:08:28.428Z,8.32
2019-05-13T02:10:58.711Z,8.34
2019-05-13T02:13:28.942Z,8.28
2019-05-13T02:15:59.227Z,8.25
2019-05-13T02:18:29.475Z,8.20
2019-05-13T02:20:59.710Z,8.26
2019-05-13T02:23:29.926Z,8.18
2019-05-13T02:26:00.154Z,8.24
2019-05-13T02:28:30.351Z,8.24
2019-05-13T02:31:00.585Z,8.21
2019-05-13T02:33:33.872Z,8.16
2019-05-13T02:36:03.485Z,8.18
2019-05-13T02:38:35.671Z,8.10
2019-05-13T02:41:07.597Z,8.10
2019-05-13T02:43:41.354Z,8.15
2019-05-13T02:46:12.914Z,8.12
2019-05-13T02:48:42.674Z,8.09
2019-05-13T02:51:12.987Z,8.06
2019-05-13T02:53:43.823Z,8.03
2019-05-13T02:56:14.469Z,8.00
2019-05-13T02:58:46.623Z,8.05
2019-05-13T03:01:16.901Z,8.03
2019-05-13T03:03:47.153Z,8.03
2019-05-13T03:06:17.506Z,8.16
2019-05-13T03:08:50.193Z,8.14
2019-05-13T03:11:22.797Z,8.10
2019-05-13T03:13:52.927Z,8.22
2019-05-13T03:16:28.427Z,8.18
2019-05-13T03:18:59.074Z,8.08
2019-05-13T03:21:32.417Z,8.10
2019-05-13T03:24:03.459Z,8.07
2019-05-13T03:26:34.009Z,8.03
2019-05-13T03:29:06.544Z,8.10
2019-05-13T03:31:36.797Z,8.09
2019-05-13T03:34:07.794Z,8.11
2019-05-13T03:36:45.531Z,8.18
2019-05-13T03:39:16.214Z,8.12
2019-05-13T03:41:52.871Z,8.07
2019-05-13T03:44:24.018Z,8.09
2019-05-13T03:46:58.026Z,8.10
2019-05-13T03:49:32.632Z,8.17
2019-05-13T03:52:03.648Z,8.12
2019-05-13T03:54:35.359Z,8.13
2019-05-13T03:57:07.001Z,8.08
2019-05-13T03:59:37.748Z,8.11
2019-05-13T04:02:08.075Z,8.08
2019-05-13T04:04:38.335Z,8.04
2019-05-13T04:07:08.646Z,8.20
2019-05-13T04:09:42.162Z,8.11
2019-05-13T04:12:13.373Z,8.08
2019-05-13T04:14:43.905Z,8.11
2019-05-13T04:17:14.246Z,8.15
2019-05-13T04:19:44.457Z,8.16
2019-05-13T04:22:14.785Z,8.12
2019-05-13T04:24:45.070Z,8.14
2019-05-13T04:27:15.356Z,8.17
2019-05-13T04:29:46.643Z,8.25
2019-05-13T04:32:17.849Z,8.29
2019-05-13T04:34:49.122Z,8.29
2019-05-13T04:37:22.253Z,8.38
2019-05-13T04:39:56.095Z,8.45
2019-05-13T04:42:24.120Z,8.54
2019-05-13T04:44:56.281Z,8.63
2019-05-13T04:47:28.546Z,8.78
2019-05-13T04:50:02.947Z,8.78
2019-05-13T04:52:33.139Z,8.85
2019-05-13T04:55:05.487Z,8.82
2019-05-13T04:57:36.783Z,8.81
2019-05-13T05:00:08.135Z,8.81
2019-05-13T05:03:05.921Z,8.81
2019-05-13T05:05:55.635Z,8.76
2019-05-13T05:08:37.679Z,8.80
2019-05-13T05:11:42.633Z,8.75
2019-05-13T05:14:35.704Z,8.65
2019-05-13T05:17:36.111Z,8.64
2019-05-13T05:20:12.330Z,8.65
2019-05-13T05:22:51.941Z,8.64
2019-05-13T05:25:41.785Z,8.68
2019-05-13T05:28:44.095Z,8.65
2019-05-13T05:31:17.370Z,8.69
2019-05-13T05:34:25.911Z,8.77
2019-05-13T05:37:02.020Z,8.74
2019-05-13T05:39:32.582Z,8.86
2019-05-13T05:42:04.115Z,9.01
2019-05-13T05:44:35.136Z,9.12
2019-05-13T05:47:05.810Z,9.16
2019-05-13T05:49:37.896Z,9.26
2019-05-13T05:52:12.265Z,9.34
2019-05-13T05:54:42.695Z,9.42
2019-05-13T05:57:13.341Z,9.52
2019-05-13T05:59:44.528Z,9.45
2019-05-13T06:02:17.604Z,9.40
2019-05-13T06:04:51.981Z,9.43
2019-05-13T06:07:23.865Z,9.45
2019-05-13T06:09:54.154Z,9.39
2019-05-13T06:12:25.809Z,9.45
2019-05-13T06:14:57.122Z,9.37
2019-05-13T06:17:27.928Z,9.33
2019-05-13T06:20:03.243Z,9.22
2019-05-13T06:22:32.879Z,9.15
2019-05-13T06:25:04.582Z,9.13
2019-05-13T06:27:34.908Z,9.20
2019-05-13T06:30:07.048Z,9.26
2019-05-13T06:32:37.558Z,9.34
2019-05-13T06:35:07.800Z,9.34
2019-05-13T06:37:38.424Z,9.36
2019-05-13T06:40:12.395Z,9.41
2019-05-13T06:42:42.697Z,9.40
2019-05-13T06:45:13.710Z,9.50
2019-05-13T06:47:44.559Z,9.46
2019-05-13T06:50:15.058Z,9.47
2019-05-13T06:52:45.334Z,9.43
2019-05-13T06:55:15.630Z,9.41
2019-05-13T06:57:46.215Z,9.46
2019-05-13T07:00:16.949Z,9.43
2019-05-13T07:02:47.140Z,9.34
2019-05-13T07:05:17.372Z,9.41
2019-05-13T07:07:47.932Z,9.42
2019-05-13T07:10:21.494Z,9.47
2019-05-13T07:12:52.356Z,9.45
2019-05-13T07:15:23.172Z,9.42
2019-05-13T07:17:53.468Z,9.48
2019-05-13T07:20:23.713Z,9.51
2019-05-13T07:22:53.920Z,9.52
2019-05-13T07:25:24.137Z,9.49
2019-05-13T07:27:54.369Z,9.53
2019-05-13T07:30:36.628Z,9.53
2019-05-13T07:33:06.891Z,9.71
2019-05-13T07:35:38.757Z,9.88
2019-05-13T07:38:11.667Z,10.05
2019-05-13T07:40:42.336Z,10.13
2019-05-13T07:43:12.651Z,10.22
2019-05-13T07:45:42.894Z,10.30
2019-05-13T07:48:21.201Z,10.51
2019-05-13T07:50:56.348Z,10.61
2019-05-13T07:53:19.216Z,10.83
2019-05-13T07:55:52.321Z,10.93
2019-05-13T07:58:22.997Z,11.04
2019-05-13T08:00:53.856Z,10.94
2019-05-13T08:03:24.588Z,10.87
2019-05-13T08:05:55.403Z,10.59
2019-05-13T08:08:25.760Z,10.48
2019-05-13T08:10:57.595Z,10.35
2019-05-13T08:13:28.487Z,10.24
2019-05-13T08:16:01.674Z,10.24
2019-05-13T08:18:31.850Z,10.19
2019-05-13T08:21:02.657Z,10.15
2019-05-13T08:23:33.353Z,10.13
2019-05-13T08:26:03.714Z,10.19
2019-05-13T08:28:34.346Z,10.22
2019-05-13T08:31:05.904Z,10.26
2019-05-13T08:33:36.761Z,10.20
2019-05-13T08:36:07.077Z,10.12
2019-05-13T08:38:37.317Z,10.05
2019-05-13T08:41:09.768Z,10.03
2019-05-13T08:43:41.920Z,10.04
2019-05-13T08:46:12.594Z,10.19
2019-05-13T08:48:44.295Z,10.24
2019-05-13T08:51:14.842Z,10.29
2019-05-13T08:53:45.508Z,10.43
2019-05-13T08:56:16.198Z,10.70
2019-05-13T08:58:47.269Z,11.02
2019-05-13T09:01:17.940Z,11.30
2019-05-13T09:03:48.683Z,11.60
2019-05-13T09:06:19.043Z,11.83
2019-05-13T09:08:53.299Z,11.93
2019-05-13T09:11:22.253Z,11.93
2019-05-13T09:13:52.879Z,11.84
2019-05-13T09:16:23.417Z,11.82
2019-05-13T09:18:54.057Z,11.84
2019-05-13T09:21:24.358Z,11.82
2019-05-13T09:23:54.942Z,11.64
2019-05-13T09:26:25.875Z,11.51
2019-05-13T09:28:56.541Z,11.52
2019-05-13T09:31:26.850Z,11.54
2019-05-13T09:33:58.434Z,11.61
2019-05-13T09:36:29.153Z,11.49
2019-05-13T09:39:02.125Z,11.53
2019-05-13T09:41:40.541Z,11.61
2019-05-13T09:44:05.646Z,11.59
2019-05-13T09:46:35.927Z,11.55
2019-05-13T09:49:16.249Z,11.69
2019-05-13T09:51:38.720Z,11.84
2019-05-13T09:54:11.493Z,11.93
2019-05-13T09:56:41.431Z,11.98
2019-05-13T09:59:12.387Z,12.02
2019-05-13T10:01:42.794Z,12.01
2019-05-13T10:04:13.009Z,12.04
2019-05-13T10:06:43.225Z,12.06
2019-05-13T10:09:13.711Z,12.13
2019-05-13T10:11:44.299Z,12.38
2019-05-13T10:14:16.151Z,12.76
2019-05-13T10:16:47.468Z,13.07
2019-05-13T10:19:18.073Z,13.55
2019-05-13T10:21:48.864Z,14.02
2019-05-13T10:24:19.180Z,14.32
2019-05-13T10:26:51.490Z,14.78
2019-05-13T10:29:22.599Z,15.29
2019-05-13T10:31:54.259Z,15.41
2019-05-13T10:34:25.302Z,15.56
2019-05-13T10:36:58.345Z,15.87
2019-05-13T10:39:28.567Z,15.76
2019-05-13T10:41:58.985Z,15.71
2019-05-13T10:44:29.519Z,15.53
2019-05-13T10:47:02.502Z,15.35
2019-05-13T10:49:33.304Z,15.12
2019-05-13T10:52:04.261Z,14.81
2019-05-13T10:54:34.716Z,14.69
2019-05-13T10:57:05.597Z,14.41
2019-05-13T10:59:35.880Z,14.08
2019-05-13T11:02:06.139Z,13.76
2019-05-13T11:04:36.745Z,13.48
2019-05-13T11:07:07.055Z,13.39
2019-05-13T11:09:37.803Z,13.35
2019-05-13T11:12:12.167Z,13.24
2019-05-13T11:14:42.374Z,13.16
2019-05-13T11:17:13.614Z,13.21
2019-05-13T11:19:45.286Z,13.04
2019-05-13T11:22:15.894Z,12.93
2019-05-13T11:24:46.602Z,12.89
2019-05-13T11:27:17.245Z,12.90
2019-05-13T11:29:48.211Z,12.97
2019-05-13T11:32:18.517Z,13.09
2019-05-13T11:34:48.809Z,13.33
2019-05-13T11:37:19.164Z,13.68
2019-05-13T11:39:51.665Z,13.63
2019-05-13T11:42:22.907Z,13.67
2019-05-13T11:44:53.846Z,13.69
2019-05-13T11:47:24.477Z,13.75
2019-05-13T11:49:55.136Z,13.76
2019-05-13T11:52:25.850Z,13.80
2019-05-13T11:54:56.167Z,13.67
2019-05-13T11:57:26.762Z,13.45
2019-05-13T11:59:57.051Z,13.24
2019-05-13T12:02:27.718Z,13.20
2019-05-13T12:04:57.998Z,13.12
2019-05-13T12:07:28.328Z,13.24
2019-05-13T12:09:58.541Z,13.21
2019-05-13T12:12:33.603Z,13.27
2019-05-13T12:15:26.320Z,13.13
2019-05-13T12:17:34.560Z,13.09
2019-05-13T12:20:05.443Z,12.89
2019-05-13T12:22:35.664Z,12.83
2019-05-13T12:25:07.264Z,12.72
2019-05-13T12:27:37.849Z,12.78
2019-05-13T12:30:08.714Z,13.02
2019-05-13T12:32:39.043Z,13.18
2019-05-13T12:35:13.351Z,13.54
2019-05-13T12:37:42.213Z,13.82
2019-05-13T12:40:13.371Z,13.81
2019-05-13T12:42:47.118Z,13.96
2019-05-13T12:45:16.495Z,14.06
2019-05-13T12:47:47.110Z,14.07
2019-05-13T12:50:23.307Z,14.14
2019-05-13T12:52:51.822Z,14.13
2019-05-13T12:55:22.504Z,14.04
2019-05-13T12:57:52.879Z,13.89
2019-05-13T13:00:23.915Z,13.81
2019-05-13T13:02:54.759Z,13.65
2019-05-13T13:05:32.932Z,13.59
2019-05-13T13:08:16.031Z,13.60
2019-05-13T13:10:34.488Z,13.73
2019-05-13T13:13:04.621Z,13.98
2019-05-13T13:15:41.117Z,14.13
2019-05-13T13:18:08.165Z,14.27
2019-05-13T13:20:42.216Z,14.40
2019-05-13T13:23:12.856Z,14.46
2019-05-13T13:25:48.562Z,14.35
2019-05-13T13:28:15.754Z,14.30
2019-05-13T13:30:46.164Z,14.30
2019-05-13T13:33:16.772Z,14.31
2019-05-13T13:35:55.019Z,14.19
2019-05-13T13:38:24.406Z,14.08
2019-05-13T13:40:53.878Z,13.95
2019-05-13T13:43:25.160Z,13.79
2019-05-13T13:46:08.538Z,13.59
2019-05-13T13:48:33.214Z,13.41
2019-05-13T13:51:05.220Z,13.18
2019-05-13T13:53:36.180Z,12.98
2019-05-13T13:56:06.574Z,12.85
2019-05-13T13:58:37.091Z,12.69
2019-05-13T14:01:13.789Z,12.65
2019-05-13T14:03:46.163Z,12.56
2019-05-13T14:07:04.337Z,12.45
2019-05-13T14:08:46.745Z,12.39
2019-05-13T14:11:17.414Z,12.33
2019-05-13T14:13:47.730Z,12.23
2019-05-13T14:16:26.022Z,12.17
2019-05-13T14:18:52.323Z,12.15
2019-05-13T14:21:22.893Z,12.11
2019-05-13T14:23:53.955Z,12.07
2019-05-13T14:26:24.949Z,12.03
2019-05-13T14:28:55.865Z,11.96
2019-05-13T14:31:26.504Z,11.91
2019-05-13T14:33:59.610Z,11.85
2019-05-13T14:36:30.428Z,11.99
2019-05-13T14:39:02.769Z,11.99
2019-05-13T14:41:34.549Z,11.93
2019-05-13T14:44:05.261Z,11.78
2019-05-13T14:46:47.020Z,11.66
2019-05-13T14:49:09.041Z,11.47
2019-05-13T14:51:41.511Z,11.32
2019-05-13T14:54:11.281Z,11.37
2019-05-13T14:56:42.120Z,11.26
2019-05-13T14:59:13.034Z,11.20
2019-05-13T15:01:44.748Z,11.16
2019-05-13T15:04:15.699Z,11.02
2019-05-13T15:06:47.453Z,10.99
2019-05-13T15:09:18.349Z,10.86
2019-05-13T15:11:52.767Z,10.86
2019-05-13T15:14:22.759Z,10.88
2019-05-13T15:17:02.697Z,10.93
2019-05-13T15:19:25.130Z,10.96
2019-05-13T15:21:55.524Z,11.06
2019-05-13T15:24:26.728Z,11.04
2019-05-13T15:26:57.441Z,11.03
2019-05-13T15:29:28.148Z,11.00
2019-05-13T15:31:58.800Z,11.05
2019-05-13T15:34:31.705Z,11.03
2019-05-13T15:37:02.178Z,10.97
2019-05-13T15:39:33.082Z,10.93
2019-05-13T15:42:03.599Z,10.83
2019-05-13T15:44:34.149Z,10.78
2019-05-13T15:47:22.488Z,10.71
2019-05-13T15:49:36.869Z,10.72
2019-05-13T15:52:07.180Z,10.75
2019-05-13T15:54:37.409Z,10.70
2019-05-13T15:57:08.729Z,10.69
2019-05-13T15:59:41.365Z,10.60
2019-05-13T16:02:11.775Z,10.57
2019-05-13T16:04:52.973Z,10.55
2019-05-13T16:07:14.863Z,10.59
2019-05-13T16:09:45.691Z,10.53
2019-05-13T16:12:16.351Z,10.46
2019-05-13T16:14:47.020Z,10.52
2019-05-13T16:17:17.670Z,10.49
2019-05-13T16:19:48.343Z,10.59
2019-05-13T16:22:19.290Z,10.57
2019-05-13T16:24:52.200Z,10.54
2019-05-13T16:27:22.412Z,10.50
2019-05-13T16:29:52.729Z,10.45
2019-05-13T16:32:23.283Z,10.28
2019-05-13T16:34:53.634Z,10.26
2019-05-13T16:37:23.805Z,10.19
2019-05-13T16:39:54.396Z,10.12
2019-05-13T16:42:25.328Z,10.11
2019-05-13T16:44:55.773Z,10.11
2019-05-13T16:47:26.158Z,10.02
2019-05-13T16:49:56.364Z,9.95
2019-05-13T16:52:27.022Z,9.91
2019-05-13T16:54:58.908Z,9.88
2019-05-13T16:57:31.531Z,9.85
2019-05-13T17:00:02.404Z,9.66
2019-05-13T17:02:33.600Z,9.59
2019-05-13T17:05:07.377Z,9.56
2019-05-13T17:07:38.145Z,9.51
2019-05-13T17:10:12.476Z,9.40
2019-05-13T17:12:42.937Z,9.38
2019-05-13T17:15:14.355Z,9.37
2019-05-13T17:17:45.012Z,9.30
2019-05-13T17:20:15.721Z,9.26
2019-05-13T17:22:45.956Z,9.33
2019-05-13T17:25:16.888Z,9.23
2019-05-13T17:27:47.576Z,9.20
2019-05-13T17:30:18.629Z,9.21
2019-05-13T17:32:51.456Z,9.16
2019-05-13T17:35:22.588Z,9.15
2019-05-13T17:37:54.892Z,9.16
2019-05-13T17:40:27.296Z,9.09
2019-05-13T17:42:57.957Z,9.06
2019-05-13T17:45:28.647Z,9.08
2019-05-13T17:48:01.080Z,9.03
2019-05-13T17:50:32.199Z,8.98
2019-05-13T17:53:02.518Z,8.89
2019-05-13T17:55:32.846Z,8.82
2019-05-13T17:58:03.077Z,8.79
2019-05-13T18:00:34.053Z,8.75
2019-05-13T18:03:04.428Z,8.72
2019-05-13T18:05:34.699Z,8.71
2019-05-13T18:08:05.070Z,8.69
2019-05-13T18:10:35.542Z,8.64
2019-05-13T18:13:05.861Z,8.63
2019-05-13T18:15:36.116Z,8.59
2019-05-13T18:18:06.337Z,8.58
2019-05-13T18:20:36.946Z,8.53
2019-05-13T18:23:07.888Z,8.49
2019-05-13T18:25:38.328Z,8.48
2019-05-13T18:28:08.568Z,8.54
2019-05-13T18:30:42.826Z,8.47
2019-05-13T18:33:13.362Z,8.40
2019-05-13T18:35:43.942Z,8.37
2019-05-13T18:38:14.602Z,8.42
2019-05-13T18:40:44.936Z,8.41
2019-05-13T18:43:15.234Z,8.39
2019-05-13T18:45:45.515Z,8.38
2019-05-13T18:48:17.002Z,8.40
2019-05-13T18:50:47.590Z,8.31
2019-05-13T18:53:18.357Z,8.33
2019-05-13T18:55:48.932Z,8.27
2019-05-13T18:58:19.161Z,8.29
2019-05-13T19:00:52.300Z,8.43
2019-05-13T19:03:23.267Z,8.41
2019-05-13T19:05:53.663Z,8.46
2019-05-13T19:08:23.946Z,8.40
2019-05-13T19:10:54.201Z,8.38
2019-05-13T19:13:24.774Z,8.41
2019-05-13T19:15:55.199Z,8.39
2019-05-13T19:18:26.990Z,8.35
2019-05-13T19:20:57.965Z,8.32
2019-05-13T19:23:28.262Z,8.28
2019-05-13T19:25:58.498Z,8.23
2019-05-13T19:28:31.525Z,8.21
2019-05-13T19:31:02.276Z,8.21
2019-05-13T19:33:34.689Z,8.19
2019-05-13T19:36:05.325Z,8.17
2019-05-13T19:38:36.046Z,8.17
2019-05-13T19:41:06.424Z,8.17
2019-05-13T19:43:36.783Z,8.16
2019-05-13T19:46:07.355Z,8.14
2019-05-13T19:48:38.243Z,8.12
2019-05-13T19:51:08.566Z,8.12
2019-05-13T19:53:41.036Z,8.10
2019-05-13T19:56:11.866Z,8.10
2019-05-13T19:58:43.263Z,8.10
2019-05-13T20:01:13.889Z,8.09
2019-05-13T20:03:44.769Z,8.06
2019-05-13T20:06:15.339Z,8.04
2019-05-13T20:08:45.803Z,8.06
2019-05-13T20:11:15.990Z,8.08
2019-05-13T20:13:46.321Z,8.09
2019-05-13T20:16:18.099Z,8.09
2019-05-13T20:18:48.490Z,8.08
2019-05-13T20:21:19.774Z,8.10
2019-05-13T20:23:51.918Z,8.09
2019-05-13T20:26:22.094Z,8.10
2019-05-13T20:28:52.433Z,8.11
2019-05-13T20:31:22.669Z,8.10
2019-05-13T20:33:52.920Z,8.04
2019-05-13T20:36:25.832Z,8.01
2019-05-13T20:38:56.394Z,8.03
2019-05-13T20:41:28.118Z,8.05
2019-05-13T20:44:01.328Z,8.07
2019-05-13T20:46:32.714Z,8.07
2019-05-13T20:49:04.543Z,8.07
2019-05-13T20:51:35.027Z,8.12
2019-05-13T20:54:06.925Z,8.08
2019-05-13T20:56:38.175Z,8.06
2019-05-13T20:59:09.724Z,8.08
2019-05-13T21:01:42.130Z,8.03
2019-05-13T21:04:12.744Z,8.06
2019-05-13T21:06:43.583Z,8.07
2019-05-13T21:09:17.308Z,8.06
2019-05-13T21:11:47.555Z,8.03
2019-05-13T21:14:21.399Z,8.04
2019-05-13T21:16:53.635Z,8.04
2019-05-13T21:19:39.407Z,8.03
2019-05-13T21:22:11.847Z,8.03
2019-05-13T21:24:44.024Z,8.01
2019-05-13T21:27:14.479Z,8.01
2019-05-13T21:29:45.120Z,7.99
2019-05-13T21:32:17.758Z,7.98
2019-05-13T21:34:48.576Z,7.93
2019-05-13T21:37:22.057Z,7.93
2019-05-13T21:39:53.105Z,7.97
2019-05-13T21:42:24.135Z,7.99
2019-05-13T21:44:55.035Z,7.98
2019-05-13T21:47:25.424Z,7.99
2019-05-13T21:49:57.687Z,7.95
2019-05-13T21:52:29.057Z,7.96
2019-05-13T21:55:01.728Z,8.02
2019-05-13T21:57:33.131Z,8.00
2019-05-13T22:00:12.077Z,7.91
2019-05-13T22:02:44.302Z,7.88
2019-05-13T22:05:15.798Z,7.87
2019-05-13T22:07:46.276Z,7.81
2019-05-13T22:10:16.917Z,7.71
2019-05-13T22:12:47.130Z,7.63
2019-05-13T22:15:25.601Z,7.60
2019-05-13T22:17:56.407Z,7.59
2019-05-13T22:20:27.146Z,7.55
2019-05-13T22:22:57.786Z,7.54
2019-05-13T22:25:28.446Z,7.53
2019-05-13T22:28:01.104Z,7.54
2019-05-13T22:30:33.316Z,7.44
2019-05-13T22:33:03.081Z,7.43
2019-05-13T22:35:33.700Z,7.40
2019-05-13T22:38:05.081Z,7.35
2019-05-13T22:40:35.855Z,7.24
2019-05-13T22:43:06.655Z,7.22
2019-05-13T22:45:37.350Z,7.18
2019-05-13T22:48:07.655Z,7.22
2019-05-13T22:50:38.271Z,7.23
2019-05-13T22:53:08.828Z,7.26
2019-05-13T22:55:41.620Z,7.28
2019-05-13T22:58:11.900Z,7.26
2019-05-13T23:00:42.592Z,7.25
2019-05-13T23:03:14.852Z,7.24
2019-05-13T23:05:45.539Z,7.28
2019-05-13T23:08:16.209Z,7.25
2019-05-13T23:10:46.505Z,7.20
2019-05-13T23:13:19.843Z,7.22
2019-05-13T23:15:53.270Z,7.18
2019-05-13T23:18:23.567Z,7.17
2019-05-13T23:20:53.785Z,7.14
2019-05-13T23:23:24.393Z,7.07
2019-05-13T23:25:56.856Z,7.13
2019-05-13T23:28:26.967Z,7.10
2019-05-13T23:30:57.267Z,7.12
2019-05-13T23:33:27.527Z,7.16
2019-05-13T23:35:57.756Z,7.10
2019-05-13T23:38:27.985Z,7.11
2019-05-13T23:40:58.208Z,7.11
2019-05-13T23:43:28.469Z,7.05
2019-05-13T23:46:01.020Z,7.11
2019-05-13T23:48:32.112Z,7.07
2019-05-13T23:51:03.192Z,7.04
2019-05-13T23:53:33.847Z,7.00
2019-05-13T23:56:04.205Z,7.05
2019-05-13T23:58:34.621Z,7.09
